Time;durP1;ratioP1;P1;durP2;ratioP2;P2;SDS_P1;SDS_P2;PMS_P1;PMS_P2;Temp;Humidity;BMP_temperature;BMP_pressure;BME280_temperature;BME280_humidity;BME280_pressure;Samples;Min_cycle;Max_cycle;Signal;HPM_P1;HPM_P2
2024/03/09 00:02:05;;;;;;;;;;;;;;;;;;4943254;28;93854;-75
2024/03/09 00:04:31;;;;;;;;;;;;;;;;;;4945358;28;95333;-76
2024/03/09 00:06:57;;;;;;;;;;;;;;;;;;4944146;28;92708;-75
2024/03/09 00:09:22;;;;;;;;;;;;;;;;;;4943703;28;92776;-75
2024/03/09 00:11:47;;;;;;;;;;;;;;;;;;4943708;28;92678;-70
2024/03/09 00:14:12;;;;;;;;;;;;;;;;;;4944446;28;92705;-70
2024/03/09 00:16:37;;;;;;;;;;;;;;;;;;4944223;28;92878;-70
2024/03/09 00:19:03;;;;;;;;;;;;;;;;;;4944447;28;91776;-71
2024/03/09 00:21:28;;;;;;;;;;;;;;;;;;4943964;28;92618;-71
2024/03/09 00:23:54;;;;;;;;;;;;;;;;;;4946745;28;93776;-71
2024/03/09 00:26:19;;;;;;;;;;;;;;;;;;4943030;28;93426;-72
2024/03/09 00:28:45;;;;;;;;;;;;;;;;;;4941737;28;95316;-73
2024/03/09 00:31:11;;;;;;;;;;;;;;;;;;4943458;28;92218;-72
2024/03/09 00:33:38;;;;;;;;;;;;;;;;;;4943214;28;92466;-72
2024/03/09 00:36:03;;;;;;;;;;;;;;;;;;4946261;28;92816;-71
2024/03/09 00:38:30;;;;;;;;;;;;;;;;;;4946385;28;92894;-71
2024/03/09 00:40:55;;;;;;;;;;;;;;;;;;4946846;28;92768;-69
2024/03/09 00:43:20;;;;;;;;;;;;;;;;;;4947487;28;92369;-71
2024/03/09 00:45:45;;;;;;;;;;;;;;;;;;4948492;28;92619;-73
2024/03/09 00:48:10;;;;;;;;;;;;;;;;;;4947181;28;92871;-71
2024/03/09 00:50:36;;;;;;;;;;;;;;;;;;4946027;28;93482;-71
2024/03/09 00:53:01;;;;;;;;;;;;;;;;;;4946766;28;93381;-71
2024/03/09 00:55:26;;;;;;;;;;;;;;;;;;4946570;28;92917;-72
2024/03/09 00:57:53;;;;;;;;;;;;;;;;;;4946103;28;92909;-70
2024/03/09 01:00:19;;;;;;;;;;;;;;;;;;4945992;28;92901;-71
2024/03/09 01:02:49;;;;;;;;;;;;;;;;;;4946082;28;92819;-76
2024/03/09 01:05:19;;;;;;;;;;;;;;;;;;4947136;28;92256;-71
2024/03/09 01:07:44;;;;;;;;;;;;;;;;;;4950643;28;93892;-70
2024/03/09 01:10:09;;;;;;;;;;;;;;;;;;4944477;28;93883;-70
2024/03/09 01:12:35;;;;;;;;;;;;;;;;;;4946168;28;92624;-71
2024/03/09 01:15:04;;;;;;;;;;;;;;;;;;4945975;28;93802;-70
2024/03/09 01:17:29;;;;;;;;;;;;;;;;;;4945929;28;92742;-69
2024/03/09 01:19:55;;;;;;;;;;;;;;;;;;4944605;28;95469;-75
2024/03/09 01:22:21;;;;;;;;;;;;;;;;;;4946326;28;93531;-73
2024/03/09 01:24:46;;;;;;;;;;;;;;;;;;4946510;28;92608;-75
2024/03/09 01:27:12;;;;;;;;;;;;;;;;;;4947028;28;93023;-73
2024/03/09 01:29:40;;;;;;;;;;;;;;;;;;4949629;28;92884;-73
2024/03/09 01:32:05;;;;;;;;;;;;;;;;;;4947022;28;92602;-74
2024/03/09 01:34:31;;;;;;;;;;;;;;;;;;4946565;28;92808;-72
2024/03/09 01:36:56;;;;;;;;;;;;;;;;;;4946065;28;92674;-76
2024/03/09 01:39:23;;;;;;;;;;;;;;;;;;4945786;28;93826;-76
2024/03/09 01:41:48;;;;;;;;;;;;;;;;;;4946143;28;92669;-75
2024/03/09 01:44:14;;;;;;;;;;;;;;;;;;4946115;28;92684;-73
2024/03/09 01:46:40;;;;;;;;;;;;;;;;;;4944881;28;93674;-75
2024/03/09 01:49:06;;;;;;;;;;;;;;;;;;4946210;28;93004;-75
2024/03/09 01:51:32;;;;;;;;;;;;;;;;;;4949216;28;93513;-70
2024/03/09 01:53:57;;;;;;;;;;;;;;;;;;4945897;28;93326;-70
2024/03/09 01:56:25;;;;;;;;;;;;;;;;;;4945607;28;91517;-71
2024/03/09 01:58:50;;;;;;;;;;;;;;;;;;4944986;28;92491;-72
2024/03/09 02:01:22;;;;;;;;;;;;;;;;;;4945757;28;93072;-71
2024/03/09 02:03:52;;;;;;;;;;;;;;;;;;4945175;28;93526;-71
2024/03/09 02:06:19;;;;;;;;;;;;;;;;;;4945748;28;94144;-73
2024/03/09 02:08:44;;;;;;;;;;;;;;;;;;4945632;28;92868;-72
2024/03/09 02:11:09;;;;;;;;;;;;;;;;;;4944939;28;92621;-71
2024/03/09 02:13:34;;;;;;;;;;;;;;;;;;4948135;28;92642;-70
2024/03/09 02:15:59;;;;;;;;;;;;;;;;;;4944268;28;92438;-71
2024/03/09 02:18:26;;;;;;;;;;;;;;;;;;4945313;28;92690;-72
2024/03/09 02:20:51;;;;;;;;;;;;;;;;;;4945940;28;92371;-70
2024/03/09 02:23:19;;;;;;;;;;;;;;;;;;4945961;28;93406;-71
2024/03/09 02:25:45;;;;;;;;;;;;;;;;;;4945916;28;92845;-71
2024/03/09 02:28:10;;;;;;;;;;;;;;;;;;4944909;28;93796;-70
2024/03/09 02:30:35;;;;;;;;;;;;;;;;;;4945013;28;92393;-71
2024/03/09 02:33:04;;;;;;;;;;;;;;;;;;4948202;28;92977;-73
2024/03/09 02:35:29;;;;;;;;;;;;;;;;;;4945280;28;92406;-70
2024/03/09 02:37:55;;;;;;;;;;;;;;;;;;4945389;28;92629;-71
2024/03/09 02:40:21;;;;;;;;;;;;;;;;;;4945127;28;92194;-72
2024/03/09 02:43:06;;;;;;;;;;;;;;;;;;4945502;28;92375;-71
2024/03/09 02:45:34;;;;;;;;;;;;;;;;;;4945797;28;92700;-71
2024/03/09 02:48:00;;;;;;;;;;;;;;;;;;4943713;28;95342;-69
2024/03/09 02:50:26;;;;;;;;;;;;;;;;;;4945450;28;92214;-69
2024/03/09 02:52:52;;;;;;;;;;;;;;;;;;4945003;28;93636;-70
2024/03/09 02:55:17;;;;;;;;;;;;;;;;;;4948176;28;92855;-72
2024/03/09 02:57:43;;;;;;;;;;;;;;;;;;4944752;28;92973;-72
2024/03/09 03:00:09;;;;;;;;;;;;;;;;;;4944503;28;93393;-72
2024/03/09 03:05:19;;;;;;;;;;;;;;;;;;4945003;28;92606;-71
2024/03/09 03:07:45;;;;;;;;;;;;;;;;;;4944709;28;92951;-71
2024/03/09 03:10:11;;;;;;;;;;;;;;;;;;4945458;28;92020;-73
2024/03/09 03:12:37;;;;;;;;;;;;;;;;;;4942574;28;94350;-72
2024/03/09 03:15:03;;;;;;;;;;;;;;;;;;4944539;28;92483;-71
2024/03/09 03:17:28;;;;;;;;;;;;;;;;;;4947261;28;93595;-75
2024/03/09 03:19:53;;;;;;;;;;;;;;;;;;4945063;28;92885;-76
2024/03/09 03:22:19;;;;;;;;;;;;;;;;;;4945620;28;92752;-76
2024/03/09 03:24:44;;;;;;;;;;;;;;;;;;4945226;28;92593;-76
2024/03/09 03:27:09;;;;;;;;;;;;;;;;;;4944703;28;93138;-71
2024/03/09 03:29:35;;;;;;;;;;;;;;;;;;4959958;28;92342;-72
2024/03/09 03:32:01;;;;;;;;;;;;;;;;;;4944520;28;92619;-71
2024/03/09 03:34:27;;;;;;;;;;;;;;;;;;4943375;28;93138;-74
2024/03/09 03:36:52;;;;;;;;;;;;;;;;;;4943860;28;92812;-70
2024/03/09 03:39:17;;;;;;;;;;;;;;;;;;4947073;28;92889;-72
2024/03/09 03:41:43;;;;;;;;;;;;;;;;;;4943433;28;93673;-70
2024/03/09 03:44:09;;;;;;;;;;;;;;;;;;4943095;28;96068;-72
2024/03/09 03:46:35;;;;;;;;;;;;;;;;;;4943005;28;93984;-69
2024/03/09 03:49:01;;;;;;;;;;;;;;;;;;4944023;28;92196;-71
2024/03/09 03:51:27;;;;;;;;;;;;;;;;;;4944030;28;92666;-70
2024/03/09 03:53:52;;;;;;;;;;;;;;;;;;4943350;28;92624;-70
2024/03/09 03:56:24;;;;;;;;;;;;;;;;;;4944074;28;92362;-70
2024/03/09 03:58:49;;;;;;;;;;;;;;;;;;4944691;28;92546;-71
2024/03/09 04:01:14;;;;;;;;;;;;;;;;;;4947429;28;92941;-71
2024/03/09 04:03:40;;;;;;;;;;;;;;;;;;4943622;28;93019;-71
2024/03/09 04:06:06;;;;;;;;;;;;;;;;;;4942861;28;93716;-70
2024/03/09 04:08:31;;;;;;;;;;;;;;;;;;4942192;28;92668;-71
2024/03/09 04:10:57;;;;;;;;;;;;;;;;;;4945049;28;94179;-71
2024/03/09 04:13:23;;;;;;;;;;;;;;;;;;4946072;28;92776;-70
2024/03/09 04:15:49;;;;;;;;;;;;;;;;;;4947032;28;92660;-70
2024/03/09 04:18:14;;;;;;;;;;;;;;;;;;4947426;28;93246;-70
2024/03/09 04:20:40;;;;;;;;;;;;;;;;;;4946580;28;93035;-73
2024/03/09 04:23:07;;;;;;;;;;;;;;;;;;4949923;28;91967;-71
2024/03/09 04:25:35;;;;;;;;;;;;;;;;;;4947052;28;93043;-70
2024/03/09 04:28:01;;;;;;;;;;;;;;;;;;4947667;28;92598;-74
2024/03/09 04:30:26;;;;;;;;;;;;;;;;;;4946765;28;93825;-70
2024/03/09 04:32:53;;;;;;;;;;;;;;;;;;4947076;28;92883;-74
2024/03/09 04:35:20;;;;;;;;;;;;;;;;;;4947512;28;92520;-75
2024/03/09 04:37:46;;;;;;;;;;;;;;;;;;4947771;28;92635;-76
2024/03/09 04:40:15;;;;;;;;;;;;;;;;;;4947089;28;93635;-73
2024/03/09 04:42:42;;;;;;;;;;;;;;;;;;4950493;28;92279;-74
2024/03/09 04:45:08;;;;;;;;;;;;;;;;;;4946894;28;92925;-73
2024/03/09 04:47:33;;;;;;;;;;;;;;;;;;4936793;28;93767;-73
2024/03/09 04:49:58;;;;;;;;;;;;;;;;;;4930988;28;93182;-70
2024/03/09 04:52:23;;;;;;;;;;;;;;;;;;4939545;28;92957;-69
2024/03/09 04:54:49;;;;;;;;;;;;;;;;;;4936107;28;93254;-69
2024/03/09 04:57:17;;;;;;;;;;;;;;;;;;4928637;28;93367;-69
2024/03/09 04:59:45;;;;;;;;;;;;;;;;;;4937378;28;93139;-69
2024/03/09 05:02:10;;;;;;;;;;;;;;;;;;4933587;28;93966;-70
2024/03/09 05:04:36;;;;;;;;;;;;;;;;;;4935188;28;93037;-69
2024/03/09 05:07:03;;;;;;;;;;;;;;;;;;4933294;28;92809;-70
2024/03/09 05:09:29;;;;;;;;;;;;;;;;;;4933868;28;92985;-71
2024/03/09 05:11:54;;;;;;;;;;;;;;;;;;4933220;28;92843;-69
2024/03/09 05:14:21;;;;;;;;;;;;;;;;;;4934648;28;93802;-74
2024/03/09 05:16:46;;;;;;;;;;;;;;;;;;4932702;28;94359;-71
2024/03/09 05:19:12;;;;;;;;;;;;;;;;;;4950194;28;94199;-69
2024/03/09 05:21:38;;;;;;;;;;;;;;;;;;4940560;28;92986;-72
2024/03/09 05:24:04;;;;;;;;;;;;;;;;;;4937975;28;92627;-73
2024/03/09 05:26:35;;;;;;;;;;;;;;;;;;4938193;28;92917;-71
2024/03/09 05:29:00;;;;;;;;;;;;;;;;;;4932215;28;94303;-73
2024/03/09 05:31:26;;;;;;;;;;;;;;;;;;4939138;28;93524;-74
2024/03/09 05:33:51;;;;;;;;;;;;;;;;;;4938490;28;92963;-69
2024/03/09 05:36:17;;;;;;;;;;;;;;;;;;4929391;28;92541;-69
2024/03/09 05:38:44;;;;;;;;;;;;;;;;;;4938366;28;93836;-73
2024/03/09 05:41:09;;;;;;;;;;;;;;;;;;4936122;28;93425;-71
2024/03/09 05:43:34;;;;;;;;;;;;;;;;;;4935410;28;94918;-70
2024/03/09 05:46:03;;;;;;;;;;;;;;;;;;4939007;28;93080;-70
2024/03/09 05:48:28;;;;;;;;;;;;;;;;;;4940156;28;92938;-71
2024/03/09 05:50:54;;;;;;;;;;;;;;;;;;4931919;28;92938;-71
2024/03/09 05:53:20;;;;;;;;;;;;;;;;;;4940749;28;92228;-70
2024/03/09 05:55:45;;;;;;;;;;;;;;;;;;4938278;28;92654;-69
2024/03/09 05:58:10;;;;;;;;;;;;;;;;;;4931393;28;93608;-69
2024/03/09 06:00:36;;;;;;;;;;;;;;;;;;4932889;28;92200;-70
2024/03/09 06:03:03;;;;;;;;;;;;;;;;;;4937300;28;92283;-69
2024/03/09 06:05:30;;;;;;;;;;;;;;;;;;4937221;28;92916;-70
2024/03/09 06:07:56;;;;;;;;;;;;;;;;;;4931476;28;93323;-71
2024/03/09 06:10:21;;;;;;;;;;;;;;;;;;4934349;28;93305;-70
2024/03/09 06:12:47;;;;;;;;;;;;;;;;;;4932097;28;92758;-69
2024/03/09 06:15:15;;;;;;;;;;;;;;;;;;4937528;28;92885;-71
2024/03/09 06:17:44;;;;;;;;;;;;;;;;;;4932137;28;92922;-72
2024/03/09 06:20:10;;;;;;;;;;;;;;;;;;4932172;28;93738;-70
2024/03/09 06:22:35;;;;;;;;;;;;;;;;;;4932823;28;94321;-71
2024/03/09 06:25:01;;;;;;;;;;;;;;;;;;4936809;28;93763;-73
2024/03/09 06:27:29;;;;;;;;;;;;;;;;;;4933588;28;92325;-70
2024/03/09 06:29:56;;;;;;;;;;;;;;;;;;4933317;28;95563;-72
2024/03/09 06:32:25;;;;;;;;;;;;;;;;;;4934919;28;94023;-72
2024/03/09 06:34:52;;;;;;;;;;;;;;;;;;4949433;28;96011;-70
2024/03/09 06:37:18;;;;;;;;;;;;;;;;;;4932477;28;93343;-68
2024/03/09 06:39:43;;;;;;;;;;;;;;;;;;4941542;28;92906;-70
2024/03/09 06:42:09;;;;;;;;;;;;;;;;;;4940691;28;95481;-71
2024/03/09 06:44:34;;;;;;;;;;;;;;;;;;4936178;28;93121;-72
2024/03/09 06:46:59;;;;;;;;;;;;;;;;;;4931523;28;92248;-70
2024/03/09 06:49:25;;;;;;;;;;;;;;;;;;4934981;28;92783;-70
2024/03/09 06:51:50;;;;;;;;;;;;;;;;;;4936433;28;93347;-71
2024/03/09 06:54:15;;;;;;;;;;;;;;;;;;4936778;28;92943;-73
2024/03/09 06:56:41;;;;;;;;;;;;;;;;;;4931833;28;95092;-72
2024/03/09 06:59:06;;;;;;;;;;;;;;;;;;4931657;28;92565;-69
2024/03/09 07:01:31;;;;;;;;;;;;;;;;;;4953085;28;95565;-74
2024/03/09 07:04:03;;;;;;;;;;;;;;;;;;4937208;28;95756;-76
2024/03/09 07:06:28;;;;;;;;;;;;;;;;;;4940967;28;93082;-71
2024/03/09 07:08:55;;;;;;;;;;;;;;;;;;4937982;28;93111;-69
2024/03/09 07:11:25;;;;;;;;;;;;;;;;;;4933211;28;94297;-73
2024/03/09 07:13:50;;;;;;;;;;;;;;;;;;4942396;28;91657;-71
2024/03/09 07:16:15;;;;;;;;;;;;;;;;;;4938491;28;92914;-70
2024/03/09 07:18:41;;;;;;;;;;;;;;;;;;4933613;28;93355;-70
2024/03/09 07:21:06;;;;;;;;;;;;;;;;;;4933428;28;93195;-69
2024/03/09 07:23:31;;;;;;;;;;;;;;;;;;4934726;28;92874;-69
2024/03/09 07:25:56;;;;;;;;;;;;;;;;;;4931448;28;92550;-71
2024/03/09 07:28:22;;;;;;;;;;;;;;;;;;4933665;28;92922;-70
2024/03/09 07:30:47;;;;;;;;;;;;;;;;;;4937652;28;93246;-69
2024/03/09 07:33:12;;;;;;;;;;;;;;;;;;4926877;28;92736;-69
2024/03/09 07:35:38;;;;;;;;;;;;;;;;;;4938307;28;92822;-69
2024/03/09 07:38:04;;;;;;;;;;;;;;;;;;4929243;28;91767;-72
2024/03/09 07:40:33;;;;;;;;;;;;;;;;;;4932728;28;92512;-69
2024/03/09 07:42:59;;;;;;;;;;;;;;;;;;4933423;28;94105;-69
2024/03/09 07:45:26;;;;;;;;;;;;;;;;;;4932443;28;93594;-72
2024/03/09 07:47:51;;;;;;;;;;;;;;;;;;4938966;28;93360;-71
2024/03/09 07:50:18;;;;;;;;;;;;;;;;;;4937248;28;94160;-71
2024/03/09 07:52:46;;;;;;;;;;;;;;;;;;4933036;28;92605;-71
2024/03/09 07:55:12;;;;;;;;;;;;;;;;;;4936982;28;92558;-72
2024/03/09 07:57:37;;;;;;;;;;;;;;;;;;4935342;28;92972;-71
2024/03/09 08:00:04;;;;;;;;;;;;;;;;;;4933658;28;93401;-73
2024/03/09 08:02:30;;;;;;;;;;;;;;;;;;4933213;28;92114;-72
2024/03/09 08:04:57;;;;;;;;;;;;;;;;;;4929637;28;92924;-72
2024/03/09 08:07:22;;;;;;;;;;;;;;;;;;4933119;28;95075;-72
2024/03/09 08:09:47;;;;;;;;;;;;;;;;;;4933003;28;94344;-72
2024/03/09 08:12:13;;;;;;;;;;;;;;;;;;4934078;28;92884;-70
2024/03/09 08:14:38;;;;;;;;;;;;;;;;;;4932633;28;92703;-70
2024/03/09 08:17:05;;;;;;;;;;;;;;;;;;4931687;28;92675;-70
2024/03/09 08:19:30;;;;;;;;;;;;;;;;;;4934899;28;93776;-70
2024/03/09 08:21:55;;;;;;;;;;;;;;;;;;4932404;28;92753;-74
2024/03/09 08:24:21;;;;;;;;;;;;;;;;;;4932660;28;92371;-71
2024/03/09 08:26:47;;;;;;;;;;;;;;;;;;4934943;28;92908;-75
2024/03/09 08:29:16;;;;;;;;;;;;;;;;;;4934386;28;92869;-70
2024/03/09 08:31:41;;;;;;;;;;;;;;;;;;4932774;28;92701;-70
2024/03/09 08:34:06;;;;;;;;;;;;;;;;;;4932520;28;93232;-71
2024/03/09 08:36:34;;;;;;;;;;;;;;;;;;4933683;28;93105;-71
2024/03/09 08:38:59;;;;;;;;;;;;;;;;;;4940667;28;92702;-71
2024/03/09 08:41:27;;;;;;;;;;;;;;;;;;4934926;28;92799;-70
2024/03/09 08:43:52;;;;;;;;;;;;;;;;;;4937064;28;93113;-70
2024/03/09 08:46:17;;;;;;;;;;;;;;;;;;4929005;28;92643;-70
2024/03/09 08:48:44;;;;;;;;;;;;;;;;;;4930386;28;94391;-69
2024/03/09 08:51:09;;;;;;;;;;;;;;;;;;4933766;28;92775;-69
2024/03/09 08:53:35;;;;;;;;;;;;;;;;;;4930980;28;92512;-70
2024/03/09 08:56:03;;;;;;;;;;;;;;;;;;4941681;28;93923;-70
2024/03/09 08:58:28;;;;;;;;;;;;;;;;;;4933506;28;93596;-74
2024/03/09 09:00:56;;;;;;;;;;;;;;;;;;4940805;28;96130;-74
2024/03/09 09:03:23;;;;;;;;;;;;;;;;;;4938152;28;92766;-72
2024/03/09 09:05:49;;;;;;;;;;;;;;;;;;4940940;28;92616;-72
2024/03/09 09:08:24;;;;;;;;;;;;;;;;;;4941656;28;93363;-72
2024/03/09 09:10:50;;;;;;;;;;;;;;;;;;4940577;28;92181;-72
2024/03/09 09:13:16;;;;;;;;;;;;;;;;;;4939864;28;92546;-71
2024/03/09 09:15:46;;;;;;;;;;;;;;;;;;4940039;28;91970;-71
2024/03/09 09:18:13;;;;;;;;;;;;;;;;;;4934951;28;92781;-69
2024/03/09 09:20:38;;;;;;;;;;;;;;;;;;4941001;28;92637;-70
2024/03/09 09:23:05;;;;;;;;;;;;;;;;;;4930005;28;94141;-70
2024/03/09 09:25:31;;;;;;;;;;;;;;;;;;4936023;28;93359;-70
2024/03/09 09:27:56;;;;;;;;;;;;;;;;;;4935605;28;92880;-70
2024/03/09 09:30:22;;;;;;;;;;;;;;;;;;4937270;28;93807;-71
2024/03/09 09:32:48;;;;;;;;;;;;;;;;;;4937564;28;92576;-71
2024/03/09 09:35:16;;;;;;;;;;;;;;;;;;4929462;28;93126;-70
2024/03/09 09:37:41;;;;;;;;;;;;;;;;;;4935698;28;93666;-71
2024/03/09 09:40:07;;;;;;;;;;;;;;;;;;4938771;28;93077;-71
2024/03/09 09:42:34;;;;;;;;;;;;;;;;;;4937813;28;92846;-70
2024/03/09 09:45:00;;;;;;;;;;;;;;;;;;4937402;28;92528;-73
2024/03/09 09:47:25;;;;;;;;;;;;;;;;;;4940188;28;94180;-72
2024/03/09 09:49:51;;;;;;;;;;;;;;;;;;4931179;28;92885;-71
2024/03/09 09:52:17;;;;;;;;;;;;;;;;;;4939746;28;93940;-70
2024/03/09 09:54:42;;;;;;;;;;;;;;;;;;4931141;28;93348;-70
2024/03/09 09:57:07;;;;;;;;;;;;;;;;;;4936601;28;92545;-71
2024/03/09 09:59:33;;;;;;;;;;;;;;;;;;4938268;28;92537;-70
2024/03/09 10:01:59;;;;;;;;;;;;;;;;;;4936559;28;92935;-71
2024/03/09 10:04:24;;;;;;;;;;;;;;;;;;4932378;28;91770;-71
2024/03/09 10:06:53;;;;;;;;;;;;;;;;;;4938188;28;92900;-72
2024/03/09 10:09:28;;;;;;;;;;;;;;;;;;4933000;28;92357;-71
2024/03/09 10:11:54;;;;;;;;;;;;;;;;;;4938932;28;95277;-74
2024/03/09 10:14:29;;;;;;;;;;;;;;;;;;4933908;28;92804;-76
2024/03/09 10:16:54;;;;;;;;;;;;;;;;;;4932165;28;92501;-74
2024/03/09 10:19:20;;;;;;;;;;;;;;;;;;4940954;28;95546;-71
2024/03/09 10:21:48;;;;;;;;;;;;;;;;;;4931708;28;92205;-71
2024/03/09 10:24:15;;;;;;;;;;;;;;;;;;4934948;28;92773;-70
2024/03/09 10:26:44;;;;;;;;;;;;;;;;;;4934830;28;95535;-71
2024/03/09 10:29:10;;;;;;;;;;;;;;;;;;4935583;28;93421;-71
2024/03/09 10:31:39;;;;;;;;;;;;;;;;;;4936794;28;94532;-70
2024/03/09 10:34:08;;;;;;;;;;;;;;;;;;4934809;28;92710;-74
2024/03/09 10:36:33;;;;;;;;;;;;;;;;;;4935951;28;93639;-73
2024/03/09 10:39:00;;;;;;;;;;;;;;;;;;4935936;28;93437;-71
2024/03/09 10:41:29;;;;;;;;;;;;;;;;;;4930046;28;94159;-72
2024/03/09 10:43:55;;;;;;;;;;;;;;;;;;4930549;28;93162;-71
2024/03/09 10:46:25;;;;;;;;;;;;;;;;;;4936270;28;93663;-73
2024/03/09 10:48:54;;;;;;;;;;;;;;;;;;4938044;28;92996;-74
2024/03/09 10:51:37;;;;;;;;;;;;;;;;;;4936007;28;92946;-72
2024/03/09 10:54:14;;;;;;;;;;;;;;;;;;4940428;28;92341;-76
2024/03/09 10:56:42;;;;;;;;;;;;;;;;;;4935501;28;92312;-70
2024/03/09 10:59:13;;;;;;;;;;;;;;;;;;4939259;28;92254;-70
2024/03/09 11:01:39;;;;;;;;;;;;;;;;;;4937380;28;93878;-71
2024/03/09 11:04:05;;;;;;;;;;;;;;;;;;4935139;28;93134;-75
2024/03/09 11:06:30;;;;;;;;;;;;;;;;;;4938299;28;94369;-70
2024/03/09 11:08:57;;;;;;;;;;;;;;;;;;4930745;28;92911;-72
2024/03/09 11:11:24;;;;;;;;;;;;;;;;;;4943298;28;92956;-74
2024/03/09 11:13:50;;;;;;;;;;;;;;;;;;4933338;28;95109;-73
2024/03/09 11:16:19;;;;;;;;;;;;;;;;;;4926132;28;93359;-74
2024/03/09 11:18:45;;;;;;;;;;;;;;;;;;4940261;28;92973;-75
2024/03/09 11:21:26;;;;;;;;;;;;;;;;;;4933803;28;93185;-74
2024/03/09 11:23:52;;;;;;;;;;;;;;;;;;4935070;28;92740;-73
2024/03/09 11:26:21;;;;;;;;;;;;;;;;;;4932934;28;93829;-73
2024/03/09 11:28:46;;;;;;;;;;;;;;;;;;4936738;28;92819;-71
2024/03/09 11:31:14;;;;;;;;;;;;;;;;;;4935466;28;92913;-75
2024/03/09 11:33:46;;;;;;;;;;;;;;;;;;4937791;28;92561;-72
2024/03/09 11:36:41;;;;;;;;;;;;;;;;;;4937263;28;93813;-72
2024/03/09 11:39:07;;;;;;;;;;;;;;;;;;4927329;28;94120;-72
2024/03/09 11:41:33;;;;;;;;;;;;;;;;;;4935688;28;93856;-71
2024/03/09 11:43:58;;;;;;;;;;;;;;;;;;4937439;28;91902;-72
2024/03/09 11:46:26;;;;;;;;;;;;;;;;;;4939020;28;92538;-72
2024/03/09 11:48:52;;;;;;;;;;;;;;;;;;4939519;28;93685;-72
2024/03/09 11:51:19;;;;;;;;;;;;;;;;;;4937651;28;93592;-72
2024/03/09 11:53:46;;;;;;;;;;;;;;;;;;4935536;28;93418;-72
2024/03/09 11:56:11;;;;;;;;;;;;;;;;;;4938495;28;93467;-72
2024/03/09 11:58:38;;;;;;;;;;;;;;;;;;4932696;28;93973;-72
2024/03/09 12:01:04;;;;;;;;;;;;;;;;;;4936197;28;92834;-72
2024/03/09 12:03:30;;;;;;;;;;;;;;;;;;4930923;28;92855;-72
2024/03/09 12:05:55;;;;;;;;;;;;;;;;;;4930633;28;93130;-71
2024/03/09 12:08:22;;;;;;;;;;;;;;;;;;4932787;28;92295;-71
2024/03/09 12:10:47;;;;;;;;;;;;;;;;;;4932577;28;93370;-71
2024/03/09 12:13:12;;;;;;;;;;;;;;;;;;4933018;28;92791;-71
2024/03/09 12:15:39;;;;;;;;;;;;;;;;;;4930551;28;93935;-72
2024/03/09 12:18:05;;;;;;;;;;;;;;;;;;4935568;28;92285;-72
2024/03/09 12:20:30;;;;;;;;;;;;;;;;;;4931535;28;92825;-72
2024/03/09 12:22:56;;;;;;;;;;;;;;;;;;4936161;28;92305;-72
2024/03/09 12:25:21;;;;;;;;;;;;;;;;;;4933084;28;92189;-71
2024/03/09 12:27:48;;;;;;;;;;;;;;;;;;4931484;28;92944;-72
2024/03/09 12:30:15;;;;;;;;;;;;;;;;;;4932366;28;93325;-72
2024/03/09 12:32:41;;;;;;;;;;;;;;;;;;4934236;28;92975;-72
2024/03/09 12:35:06;;;;;;;;;;;;;;;;;;4940632;28;93972;-72
2024/03/09 12:37:34;;;;;;;;;;;;;;;;;;4937135;28;92764;-72
2024/03/09 12:40:10;;;;;;;;;;;;;;;;;;4940229;28;93408;-73
2024/03/09 12:42:42;;;;;;;;;;;;;;;;;;4935802;28;93163;-72
2024/03/09 12:45:07;;;;;;;;;;;;;;;;;;4936069;28;93944;-73
2024/03/09 12:47:32;;;;;;;;;;;;;;;;;;4939724;28;92850;-73
2024/03/09 12:49:58;;;;;;;;;;;;;;;;;;4930754;28;93195;-73
2024/03/09 12:52:23;;;;;;;;;;;;;;;;;;4935316;28;93091;-73
2024/03/09 12:54:48;;;;;;;;;;;;;;;;;;4939912;28;93300;-73
2024/03/09 12:57:15;;;;;;;;;;;;;;;;;;4941005;28;92258;-73
2024/03/09 12:59:40;;;;;;;;;;;;;;;;;;4939842;28;93217;-73
2024/03/09 13:02:09;;;;;;;;;;;;;;;;;;4940164;28;92908;-73
2024/03/09 13:04:37;;;;;;;;;;;;;;;;;;4943337;28;94317;-73
2024/03/09 13:07:02;;;;;;;;;;;;;;;;;;4936241;28;93808;-72
2024/03/09 13:09:30;;;;;;;;;;;;;;;;;;4937537;28;92926;-72
2024/03/09 13:11:57;;;;;;;;;;;;;;;;;;4928101;28;93053;-73
2024/03/09 13:14:22;;;;;;;;;;;;;;;;;;4945071;28;92890;-73
2024/03/09 13:16:49;;;;;;;;;;;;;;;;;;4939152;28;93162;-73
2024/03/09 13:19:14;;;;;;;;;;;;;;;;;;4934000;28;92574;-73
2024/03/09 13:21:51;;;;;;;;;;;;;;;;;;4939546;28;92530;-73
2024/03/09 13:24:16;;;;;;;;;;;;;;;;;;4942127;28;95238;-73
2024/03/09 13:26:43;;;;;;;;;;;;;;;;;;4934152;28;92913;-73
2024/03/09 13:29:08;;;;;;;;;;;;;;;;;;4936587;28;93916;-73
2024/03/09 13:31:33;;;;;;;;;;;;;;;;;;4936067;28;93516;-73
2024/03/09 13:34:05;;;;;;;;;;;;;;;;;;4929554;28;94122;-73
2024/03/09 13:36:31;;;;;;;;;;;;;;;;;;4934530;28;92372;-73
2024/03/09 13:38:56;;;;;;;;;;;;;;;;;;4932626;28;92618;-73
2024/03/09 13:41:24;;;;;;;;;;;;;;;;;;4932968;28;95668;-73
2024/03/09 13:43:49;;;;;;;;;;;;;;;;;;4942863;28;92750;-73
2024/03/09 13:46:16;;;;;;;;;;;;;;;;;;4932975;28;92214;-73
2024/03/09 13:48:43;;;;;;;;;;;;;;;;;;4933684;28;92838;-73
2024/03/09 13:51:09;;;;;;;;;;;;;;;;;;4936021;28;92862;-73
2024/03/09 13:53:42;;;;;;;;;;;;;;;;;;4932839;28;94165;-73
2024/03/09 13:56:13;;;;;;;;;;;;;;;;;;4939730;28;93811;-73
2024/03/09 13:58:39;;;;;;;;;;;;;;;;;;4935208;28;95270;-73
2024/03/09 14:01:09;;;;;;;;;;;;;;;;;;4938685;28;95370;-73
2024/03/09 14:03:35;;;;;;;;;;;;;;;;;;4935110;28;92844;-73
2024/03/09 14:06:00;;;;;;;;;;;;;;;;;;4944781;28;95018;-72
2024/03/09 14:08:27;;;;;;;;;;;;;;;;;;4939323;28;93952;-73
2024/03/09 14:10:57;;;;;;;;;;;;;;;;;;4938780;28;92615;-72
2024/03/09 14:13:22;;;;;;;;;;;;;;;;;;4923640;28;94410;-73
2024/03/09 14:15:48;;;;;;;;;;;;;;;;;;4930789;28;92616;-72
2024/03/09 14:18:17;;;;;;;;;;;;;;;;;;4932551;28;93598;-72
2024/03/09 14:20:42;;;;;;;;;;;;;;;;;;4933818;28;93102;-72
2024/03/09 14:23:09;;;;;;;;;;;;;;;;;;4935019;28;93050;-73
2024/03/09 14:25:34;;;;;;;;;;;;;;;;;;4936554;28;93624;-73
2024/03/09 14:28:02;;;;;;;;;;;;;;;;;;4936490;28;95250;-72
2024/03/09 14:30:28;;;;;;;;;;;;;;;;;;4936020;28;93769;-72
2024/03/09 14:32:59;;;;;;;;;;;;;;;;;;4932693;28;92792;-73
2024/03/09 14:35:29;;;;;;;;;;;;;;;;;;4932621;28;92164;-73
2024/03/09 14:37:56;;;;;;;;;;;;;;;;;;4938644;28;93310;-73
2024/03/09 14:40:23;;;;;;;;;;;;;;;;;;4929507;28;94010;-73
2024/03/09 14:42:49;;;;;;;;;;;;;;;;;;4936844;28;93762;-73
2024/03/09 14:45:24;;;;;;;;;;;;;;;;;;4928058;28;93909;-72
2024/03/09 14:47:52;;;;;;;;;;;;;;;;;;4935666;28;92833;-72
2024/03/09 14:50:18;;;;;;;;;;;;;;;;;;4938314;28;93681;-72
2024/03/09 14:52:46;;;;;;;;;;;;;;;;;;4936024;28;95203;-71
2024/03/09 14:55:13;;;;;;;;;;;;;;;;;;4938016;28;92598;-72
2024/03/09 14:57:39;;;;;;;;;;;;;;;;;;4939468;28;95200;-72
2024/03/09 15:00:14;;;;;;;;;;;;;;;;;;4934635;28;92310;-72
2024/03/09 15:02:40;;;;;;;;;;;;;;;;;;4937037;28;92775;-72
2024/03/09 15:05:05;;;;;;;;;;;;;;;;;;4925022;28;93753;-72
2024/03/09 15:07:31;;;;;;;;;;;;;;;;;;4929312;28;93776;-71
2024/03/09 15:09:57;;;;;;;;;;;;;;;;;;4929912;28;92632;-72
2024/03/09 15:12:22;;;;;;;;;;;;;;;;;;4932085;28;93054;-72
2024/03/09 15:14:47;;;;;;;;;;;;;;;;;;4933276;28;92737;-72
2024/03/09 15:17:15;;;;;;;;;;;;;;;;;;4932021;28;92742;-72
2024/03/09 15:19:40;;;;;;;;;;;;;;;;;;4932423;28;93492;-72
2024/03/09 15:22:05;;;;;;;;;;;;;;;;;;4934244;28;92633;-72
2024/03/09 15:24:31;;;;;;;;;;;;;;;;;;4923674;28;95244;-72
2024/03/09 15:26:57;;;;;;;;;;;;;;;;;;4940081;28;94189;-72
2024/03/09 15:29:23;;;;;;;;;;;;;;;;;;4938286;28;93029;-72
2024/03/09 15:31:48;;;;;;;;;;;;;;;;;;4936129;28;93857;-72
2024/03/09 15:34:15;;;;;;;;;;;;;;;;;;4933286;28;92886;-72
2024/03/09 15:36:40;;;;;;;;;;;;;;;;;;4934144;28;93010;-73
2024/03/09 15:39:06;;;;;;;;;;;;;;;;;;4930657;28;95278;-72
2024/03/09 15:41:31;;;;;;;;;;;;;;;;;;4927833;28;92345;-72
2024/03/09 15:43:56;;;;;;;;;;;;;;;;;;4933578;28;93206;-72
2024/03/09 15:46:21;;;;;;;;;;;;;;;;;;4934363;28;92908;-72
2024/03/09 15:48:47;;;;;;;;;;;;;;;;;;4941835;28;92273;-72
2024/03/09 15:51:13;;;;;;;;;;;;;;;;;;4937202;28;92764;-72
2024/03/09 15:53:39;;;;;;;;;;;;;;;;;;4944165;28;92396;-72
2024/03/09 15:56:08;;;;;;;;;;;;;;;;;;4932117;28;94103;-71
2024/03/09 15:58:33;;;;;;;;;;;;;;;;;;4934519;28;93725;-74
2024/03/09 16:01:03;;;;;;;;;;;;;;;;;;4935330;28;92910;-74
2024/03/09 16:03:31;;;;;;;;;;;;;;;;;;4937658;28;92673;-72
2024/03/09 16:05:57;;;;;;;;;;;;;;;;;;4939957;28;92870;-73
2024/03/09 16:08:22;;;;;;;;;;;;;;;;;;4940428;28;93522;-73
2024/03/09 16:10:48;;;;;;;;;;;;;;;;;;4933959;28;95157;-72
2024/03/09 16:13:13;;;;;;;;;;;;;;;;;;4936486;28;92627;-72
2024/03/09 16:15:41;;;;;;;;;;;;;;;;;;4939409;28;93373;-73
2024/03/09 16:18:06;;;;;;;;;;;;;;;;;;4937624;28;93136;-72
2024/03/09 16:20:31;;;;;;;;;;;;;;;;;;4936010;28;93685;-72
2024/03/09 16:22:56;;;;;;;;;;;;;;;;;;4936324;28;93635;-73
2024/03/09 16:25:22;;;;;;;;;;;;;;;;;;4936049;28;92866;-72
2024/03/09 16:27:47;;;;;;;;;;;;;;;;;;4937552;28;92383;-72
2024/03/09 16:30:19;;;;;;;;;;;;;;;;;;4937266;28;92956;-73
2024/03/09 16:32:44;;;;;;;;;;;;;;;;;;4936957;28;92805;-74
2024/03/09 16:35:11;;;;;;;;;;;;;;;;;;4930948;28;92890;-73
2024/03/09 16:37:37;;;;;;;;;;;;;;;;;;4947809;28;92622;-72
2024/03/09 16:40:02;;;;;;;;;;;;;;;;;;4936301;28;92769;-72
2024/03/09 16:42:27;;;;;;;;;;;;;;;;;;4937438;28;95223;-72
2024/03/09 16:44:53;;;;;;;;;;;;;;;;;;4937624;28;94166;-73